Anza Borrego Desert State Park, California Weather observations

Data are for 10 minute period ending at time listed.
 Day   Time   Solar   Ave.   Ave.  Ave.  Vector  Max.   Baro.   Total    
  of    of     Rad.   Air    Rel.  Wind   Wind   Wind  Press.  Precip.   
Year   Day            Temp.  Hum.  Speed  Dir.   Gust                    
2016   (PST)  Kw/m2    F      %     mph   deg.    mph    mb.     in.     
-------------------------------------------------------------------------
 180   21:10   0.00   96.4    20    3.1   210     5.2   978.6    0.00 
 180   21:20   0.00   95.6    20    3.6   212     5.3   978.6    0.00 
 180   21:30   0.00   97.4    20    5.9    92    10.6   978.6    0.00 
 180   21:40   0.00   97.6    20    4.0   117     7.3   978.6    0.00 
 180   21:50   0.00   95.4    21    4.6   257     6.6   978.6    0.00 
 180   22:00   0.00   95.5    22    2.5   243     5.9   978.6    0.00 
 180   22:10   0.00   95.3    22    4.1   222     5.7   978.6    0.00 
 180   22:20   0.00   94.8    22    3.7   194     5.6   978.5    0.00 
 180   22:30   0.00   93.8    22    4.8   175     8.2   978.5    0.00 
 180   22:40   0.00   95.6    21    4.3   195     6.7   978.4    0.00 
 180   22:50   0.00   93.7    22    3.7   250     6.3   978.5    0.00 
 180   23:00   0.00   92.6    22    2.8   226     3.9   978.4    0.00 
 180   23:10   0.00   91.6    23    2.5   220     4.9   978.4    0.00 
 180   23:20   0.00   90.7    24    2.4   228     4.2   978.3    0.00 
 180   23:30   0.00   90.6    24    4.1   211     5.9   978.2    0.00 
 180   23:40   0.00   90.3    24    2.1   176     3.9   978.2    0.00 
 180   23:50   0.00   90.9    24    2.1   182     3.5   978.2    0.00 
 181    0:00   0.00   91.6    23    2.2   181     3.6   978.2    0.00 
 181    0:10   0.00   91.3    23    2.1   230     3.7   978.1    0.00 
 181    0:20   0.00   89.9    24    2.8   212     3.5   978.1    0.00 
 181    0:30   0.00   88.3    25    2.8   214     3.8   978.0    0.00 
 181    0:40   0.00   87.6    25    2.7   233     4.9   978.0    0.00 
 181    0:50   0.00   89.8    24    3.1   232     6.3   977.8    0.00 
 181    1:00   0.00   89.6    24    4.9   250     6.9   977.7    0.00 
 181    1:10   0.00   90.5    24    3.3   232     5.5   977.7    0.00 
 181    1:20   0.00   88.0    25    3.4   192     4.7   977.7    0.00 
 181    1:30   0.00   88.2    25    3.2   216     4.9   977.7    0.00 
 181    1:40   0.00   89.3    24    1.3   284     3.8   977.5    0.00 
 181    1:50   0.00   87.1    25    1.3     2     2.9   977.5    0.00 
 181    2:00   0.00   86.0    26    1.8   252     5.8   977.4    0.00 
 181    2:10   0.00   87.4    25    1.5   299     5.4   977.3    0.00 
 181    2:20   0.00   87.0    25    0.7   186     2.3   977.3    0.00 
 181    2:30   0.00   85.8    26    4.0   210     6.0   977.3    0.00 
 181    2:40   0.00   87.1    25    4.2   224     6.2   977.3    0.00 
 181    2:50   0.00   88.8    24    5.5   197     6.6   977.3    0.00 
 181    3:00   0.00   86.3    25    4.7   224     6.1   977.3    0.00 
 181    3:10   0.00   85.7    26    3.3   261     5.8   977.4    0.00 
 181    3:20   0.00   85.1    26    2.3   254     6.1   977.4    0.00 
 181    3:30   0.00   85.6    25    2.1   209     4.5   977.5    0.00 
 181    3:40   0.00   87.3    24    2.4   286     4.2   977.7    0.00 
 181    3:50   0.00   87.3    24    3.6   272     5.8   977.8    0.00 
 181    4:00   0.00   86.6    24    3.0   258     5.9   977.8    0.00 
 181    4:10   0.00   85.1    26    5.2   222     6.7   977.8    0.00 
 181    4:20   0.00   86.0    25    4.1   225     6.4   977.9    0.00 
 181    4:30   0.00   86.1    24    2.8   237     4.3   978.1    0.00 
 181    4:40   0.00   86.5    24    2.9   248     4.7   978.1    0.00 
 181    4:50   0.00   86.7    23    2.2   230     3.3   978.3    0.00 
 181    5:00   0.01   85.5    24    3.8   216     5.0   978.4    0.00 
 181    5:10   0.03   85.8    24    3.8   226     4.9   978.5    0.00 
 181    5:20   0.05   88.0    23    4.3   222     6.2   978.8    0.00 
 181    5:30   0.08   91.4    20    4.6   236     8.3   978.8    0.00 
 181    5:40   0.10   92.9    19    5.5   233     7.5   978.9    0.00 
 181    5:50   0.12   95.4    17    5.4   200     7.9   979.0    0.00 
 181    6:00   0.15   97.4    17    3.7   192     5.9   979.2    0.00 
 181    6:10   0.19   97.7    16    6.4   141     9.3   979.5    0.00 
 181    6:20   0.22   97.5    16    7.5   144    12.6   979.8    0.00 
 181    6:30   0.25   96.1    17    7.1   116    13.4   980.3    0.00 
 181    6:40   0.28   94.9    18    5.8   144     9.5   980.6    0.00 
 181    6:50   0.32   94.5    20    4.3   143     9.6   980.8    0.00 
 181    7:00   0.35   95.1    21    5.7   128    12.5   981.0    0.00 
 181    7:10   0.38   94.7    24    7.2   138    11.8   981.1    0.00 
 181    7:20   0.42   94.3    26    8.4   151    11.4   981.3    0.00 
 181    7:30   0.45   93.9    31    7.2   142    10.4   981.4    0.00 
 181    7:40   0.48   94.2    34    5.9   141     8.9   981.5    0.00 
 181    7:50   0.51   93.8    38    6.5   117     9.8   981.5    0.00 
 181    8:00   0.54   93.5    40    7.5   125    10.9   981.6    0.00 
 181    8:10   0.57   93.7    42    5.3    99     8.8   981.7    0.00 
 181    8:20   0.60   93.9    41    7.0    99    12.4   981.8    0.00 
 181    8:30   0.63   94.8    40    7.0   106    11.8   981.8    0.00 
 181    8:40   0.66   94.9    36    7.6   110    13.3   981.8    0.00 
 181    8:50   0.69   95.1    35    8.8   104    15.9   981.9    0.00 
 181    9:00   0.72   95.3    35    8.1   113    12.9   981.9    0.00 
 181    9:10   0.74   95.4    35    6.9    86    13.5   981.8    0.00 
 181    9:20   0.77   96.2    34    4.9    94     9.1   981.8    0.00 
 181    9:30   0.79   96.9    33    3.9    74     7.6   981.8    0.00 
 181    9:40   0.81   98.2    32    3.3    96     6.3   981.6    0.00 
 181    9:50   0.83   98.7    32    2.6    67     7.5   981.5    0.00 
 181   10:00   0.85   99.2    30    4.6   103     9.3   981.5    0.00 
 181   10:10   0.87   99.6    30    4.5    77     8.8   981.4    0.00 
 181   10:20   0.89  100.1    29    4.9    83    11.2   981.4    0.00 
 181   10:30   0.90  100.6    28    6.3    88     9.4   981.4    0.00 
 181   10:40   0.91  100.9    26    6.1   109    12.8   981.3    0.00 
 181   10:50   0.93  101.7    24    6.5    98    11.7   981.3    0.00 
 181   11:00   0.93  102.2    23    3.9   117    10.2   981.2    0.00 
 181   11:10   0.94  102.5    23    5.4   116    12.9   981.0    0.00 
 181   11:20   0.95  102.8    22    7.5   103    14.2   981.0    0.00 
 181   11:30   0.95  102.9    22    6.1   126     9.7   980.8    0.00 
 181   11:40   0.96  103.5    21    5.3   126     9.5   980.7    0.00 
 181   11:50   0.97  104.0    21    5.8   110    11.5   980.4    0.00 
 181   12:00   0.96  105.0    20    4.2    81     8.6   980.3    0.00 
 181   12:10   0.96  104.9    20    5.4    68    11.2   980.2    0.00 
 181   12:20   0.96  105.3    20    6.6    97    12.3   980.1    0.00 
 181   12:30   0.95  106.1    20    5.6    85    12.5   979.9    0.00 
 181   12:40   0.92  106.1    21    7.8   108    13.4   979.8    0.00 
 181   12:50   0.92  106.4    20    5.2   148    13.8   979.7    0.00 
 181   13:00   0.92  107.0    20    7.3   145    18.3   979.5    0.00 
 181   13:10   0.91  107.0    20    5.2   126    12.6   979.5    0.00 
 181   13:20   0.90  106.8    20    7.7    97    13.4   979.3    0.00 
 181   13:30   0.88  106.9    20    5.1    89    13.0   979.1    0.00 
 181   13:40   0.86  107.1    20    6.7    88    12.5   978.9    0.00 
 181   13:50   0.85  107.1    20    6.4   107    13.9   978.7    0.00 
 181   14:00   0.84  107.5    19    7.0    88    12.4   978.5    0.00 
 181   14:10   0.80  108.4    19    5.5   100    13.2   978.3    0.00 
 181   14:20   0.78  107.6    19    7.7   110    13.2   978.1    0.00 
 181   14:30   0.76  107.9    19    7.7   101    13.0   977.9    0.00 
 181   14:40   0.74  107.9    19    6.9   101    14.5   977.8    0.00 
 181   14:50   0.72  108.3    19    7.1   127    13.6   977.7    0.00 
 181   15:00   0.63  108.2    20    6.8   106    14.6   977.5    0.00 
 181   15:10   0.66  108.2    20    6.4    98    13.3   977.4    0.00 
 181   15:20   0.63  108.9    20    6.1   121    13.1   977.3    0.00 
 181   15:30   0.60  108.2    20    6.4   100    13.5   977.1    0.00 
 181   15:40   0.58  108.9    20    7.2    99    11.3   977.0    0.00 
 181   15:50   0.55  109.0    20    3.6   104     8.0   976.9    0.00 
 181   16:00   0.51  109.0    20    6.7    90    11.6   976.7    0.00 
 181   16:10   0.48  108.6    21    8.7    98    13.6   976.6    0.00 
 181   16:20   0.45  108.3    22    7.2    79    13.2   976.6    0.00 
 181   16:30   0.42  109.1    20    4.0    74     9.3   976.5    0.00 
 181   16:40   0.40  110.8    17    6.1   201    13.2   976.4    0.00 
 181   16:50   0.36  111.1    15    4.6   305     8.8   976.3    0.00 
 181   17:00   0.33  110.0    14    7.8   331    14.2   976.3    0.00 
 181   17:10   0.30  109.8    13    7.8   304    15.2   976.3    0.00 
 181   17:20   0.28  109.7    13    6.7   315    10.3   976.3    0.00 
 181   17:30   0.24  110.2    12    5.8   287    13.9   976.3    0.00 
 181   17:40   0.18  109.3    10    8.9   272    15.4   976.4    0.00 
 181   17:50   0.03  107.8    10    6.7   302    13.4   976.4    0.00 
 181   18:00   0.03  106.6    11    9.1   291    18.1   976.4    0.00 
 181   18:10   0.03  105.9    12    8.0   299    15.1   976.5    0.00 
 181   18:20   0.01  105.6    12    6.6   317    17.3   976.5    0.00 
 181   18:30   0.01  104.6    13    9.2   329    19.1   976.5    0.00 
 181   18:40   0.01  104.1    14    9.1   327    16.0   976.6    0.00 
 181   18:50   0.01  103.3    15   11.1   329    19.6   976.6    0.00 
 181   19:00   0.00  102.7    15   11.2   330    21.4   976.7    0.00 
 181   19:10   0.00  102.4    15    9.1   330    17.0   976.8    0.00 
 181   19:20   0.00  102.4    15    7.7   335    13.2   977.0    0.00 
 181   19:30   0.00  102.1    15    5.9   104    11.0   977.0    0.00 
 181   19:40   0.00  100.8    16    7.4   118     9.7   977.2    0.00 
 181   19:50   0.00  100.6    16    7.1   122    10.4   977.3    0.00 
 181   20:00   0.00  100.3    16    5.2   140     7.5   977.5    0.00 
 181   20:10   0.00   99.7    19    4.6   128     7.9   977.7    0.00 
 181   20:20   0.00   98.9    21    8.1   153    11.3   977.9    0.00 
 181   20:30   0.00   97.3    28   12.7   144    21.3   978.1    0.00 
 181   20:40   0.00   95.4    37   10.0   166    16.5   978.3    0.00 
 181   20:50   0.00   94.7    39    8.9   157    12.3   978.4    0.00 
 181   21:00   0.00   94.3    41    7.7   149    11.5   978.5    0.00 

Return to Anza Borrego Desert State Park graphs page.


Western Regional Climate Center,wrcc@dri.edu